Time;durP1;ratioP1;P1;durP2;ratioP2;P2;SDS_P1;SDS_P2;PMS_P1;PMS_P2;Temp;Humidity;BMP_temperature;BMP_pressure;BME280_temperature;BME280_humidity;BME280_pressure;Samples;Min_cycle;Max_cycle;Signal;HPM_P1;HPM_P2
2023/07/16 00:00:45;;;;;;;5.80;2.00;;;;;;;21.09;72.88;100854.88;7395064;19;20028;-56
2023/07/16 00:03:14;;;;;;;5.25;2.08;;;;;;;21.09;72.33;100859.44;7396117;19;20039;-53
2023/07/16 00:05:41;;;;;;;3.97;1.80;;;;;;;21.08;72.27;100861.31;7396179;19;20365;-52
2023/07/16 00:08:08;;;;;;;6.00;1.80;;;;;;;21.09;71.88;100878.28;7396547;19;20373;-55
2023/07/16 00:10:36;;;;;;;4.18;1.75;;;;;;;21.04;71.91;100870.75;7395155;19;20010;-55
2023/07/16 00:13:04;;;;;;;4.70;1.88;;;;;;;21.06;70.82;100874.13;7395480;19;20040;-54
2023/07/16 00:15:31;;;;;;;5.32;1.70;;;;;;;21.04;70.65;100859.16;7395197;19;20018;-54
2023/07/16 00:17:59;;;;;;;8.55;2.28;;;;;;;20.99;70.47;100845.41;7395972;19;20104;-55
2023/07/16 00:20:27;;;;;;;5.75;1.90;;;;;;;20.92;69.78;100818.34;7394452;19;20018;-54
2023/07/16 00:22:54;;;;;;;3.85;1.90;;;;;;;21.02;69.65;100818.09;7395570;19;20022;-58
2023/07/16 00:25:21;;;;;;;3.80;1.77;;;;;;;20.97;69.81;100820.50;7394520;19;20029;-58
2023/07/16 00:27:49;;;;;;;5.13;2.00;;;;;;;20.90;70.33;100834.66;7394258;19;20032;-58
2023/07/16 00:30:16;;;;;;;6.28;2.08;;;;;;;20.83;70.68;100851.69;7392912;19;20043;-59
2023/07/16 00:32:43;;;;;;;5.38;2.15;;;;;;;20.86;70.02;100862.13;7395285;19;20022;-58
2023/07/16 00:35:11;;;;;;;4.75;1.92;;;;;;;20.81;69.84;100859.97;7392632;19;20110;-58
2023/07/16 00:37:38;;;;;;;5.38;2.05;;;;;;;20.85;69.87;100866.66;7395693;19;20018;-58
2023/07/16 00:40:07;;;;;;;5.80;1.80;;;;;;;20.91;70.00;100871.34;7393396;19;20748;-58
2023/07/16 00:42:34;;;;;;;5.25;1.92;;;;;;;20.84;69.93;100856.94;7395889;19;20022;-58
2023/07/16 00:45:02;;;;;;;5.50;2.00;;;;;;;20.72;70.83;100841.34;7394931;19;20019;-58
2023/07/16 00:47:30;;;;;;;4.38;1.75;;;;;;;20.83;70.30;100859.78;7395242;19;20014;-58
2023/07/16 00:49:57;;;;;;;6.47;2.00;;;;;;;20.80;70.65;100861.00;7394809;19;20019;-58
2023/07/16 00:52:25;;;;;;;5.35;1.80;;;;;;;20.80;70.10;100863.69;7394044;19;20015;-57
2023/07/16 00:54:53;;;;;;;6.05;1.90;;;;;;;20.87;69.62;100867.34;7390619;19;20019;-57
2023/07/16 00:57:20;;;;;;;4.50;1.80;;;;;;;20.89;69.57;100872.53;7395123;19;20141;-57
2023/07/16 00:59:47;;;;;;;4.90;1.80;;;;;;;20.74;69.81;100861.69;7394933;19;20074;-57
2023/07/16 01:02:14;;;;;;;4.70;1.90;;;;;;;20.81;69.94;100869.91;7394693;19;20018;-57
2023/07/16 01:04:42;;;;;;;4.97;1.67;;;;;;;20.85;70.12;100882.81;7393609;19;20022;-58
2023/07/16 01:07:13;;;;;;;5.13;1.60;;;;;;;20.84;69.97;100910.78;7393238;19;20018;-57
2023/07/16 01:09:42;;;;;;;3.35;1.92;;;;;;;20.79;70.60;100915.81;7394789;19;20021;-58
2023/07/16 01:12:10;;;;;;;7.07;2.10;;;;;;;20.69;70.75;100915.22;7394168;19;20019;-55
2023/07/16 01:14:39;;;;;;;4.85;1.83;;;;;;;20.66;71.26;100916.41;7390473;19;20094;-54
2023/07/16 01:17:06;;;;;;;6.03;1.90;;;;;;;20.67;70.83;100911.84;7393904;19;20014;-55
2023/07/16 01:19:35;;;;;;;6.50;2.35;;;;;;;20.66;70.91;100902.09;7394221;19;20120;-54
2023/07/16 01:22:21;;;;;;;4.32;2.20;;;;;;;20.74;70.76;100903.91;7394141;19;20605;-55
2023/07/16 01:25:30;;;;;;;6.20;2.00;;;;;;;20.72;70.59;100919.38;7393736;19;20022;-57
2023/07/16 01:28:27;;;;;;;4.97;1.52;;;;;;;20.68;70.97;100913.53;7392887;19;20019;-57
2023/07/16 01:30:57;;;;;;;4.13;1.80;;;;;;;20.65;71.04;100905.81;7392820;19;20025;-58
2023/07/16 01:33:25;;;;;;;3.92;1.77;;;;;;;20.72;71.12;100914.88;7395410;19;20018;-57
2023/07/16 01:35:54;;;;;;;5.63;1.80;;;;;;;20.70;71.43;100914.19;7393366;19;20043;-58
2023/07/16 01:38:23;;;;;;;6.35;2.22;;;;;;;20.66;70.89;100916.41;7393413;19;20456;-58
2023/07/16 01:40:50;;;;;;;6.00;2.05;;;;;;;20.64;71.28;100913.06;7392608;19;20332;-57
2023/07/16 01:43:17;;;;;;;8.73;1.92;;;;;;;20.63;71.91;100913.22;7393393;19;20472;-58
2023/07/16 01:45:44;;;;;;;6.63;2.15;;;;;;;20.64;70.96;100915.75;7390675;19;20019;-58
2023/07/16 01:48:28;;;;;;;4.65;2.00;;;;;;;20.68;70.90;100919.75;7393551;19;20029;-58
2023/07/16 01:50:55;;;;;;;6.03;1.85;;;;;;;20.59;71.71;100915.41;7391771;19;20345;-58
2023/07/16 01:53:22;;;;;;;7.82;2.10;;;;;;;20.53;72.00;100913.44;7392898;19;20022;-57
2023/07/16 01:55:49;;;;;;;6.55;1.80;;;;;;;20.53;71.89;100909.88;7391786;19;20018;-57
2023/07/16 01:58:17;;;;;;;4.63;1.83;;;;;;;20.53;72.33;100901.81;7392947;19;20047;-60
2023/07/16 02:00:44;;;;;;;5.88;2.05;;;;;;;20.49;72.08;100897.75;7392281;19;20414;-59
2023/07/16 02:03:11;;;;;;;5.13;1.73;;;;;;;20.41;72.88;100898.63;7393278;19;20508;-59
2023/07/16 02:05:39;;;;;;;6.72;2.35;;;;;;;20.41;72.69;100895.94;7390678;19;20022;-58
2023/07/16 02:08:06;;;;;;;5.38;1.92;;;;;;;20.45;72.78;100895.44;7392585;19;20032;-59
2023/07/16 02:10:33;;;;;;;5.32;1.98;;;;;;;20.51;72.25;100893.09;7391758;19;20021;-58
2023/07/16 02:13:01;;;;;;;6.90;2.03;;;;;;;20.45;72.42;100897.25;7391921;19;20014;-59
2023/07/16 02:15:28;;;;;;;5.25;1.80;;;;;;;20.53;71.84;100886.53;7390105;19;20502;-57
2023/07/16 02:17:55;;;;;;;6.10;2.10;;;;;;;20.48;71.79;100885.31;7390519;19;20017;-57
2023/07/16 02:20:23;;;;;;;7.85;2.10;;;;;;;20.50;71.87;100891.41;7391727;19;20022;-57
2023/07/16 02:22:50;;;;;;;6.20;1.90;;;;;;;20.52;71.70;100895.59;7392352;19;20026;-57
2023/07/16 02:25:17;;;;;;;5.60;2.20;;;;;;;20.39;72.14;100892.59;7391530;19;20081;-57
2023/07/16 02:27:45;;;;;;;6.80;2.17;;;;;;;20.38;72.61;100904.38;7391784;19;20019;-58
2023/07/16 02:30:14;;;;;;;5.88;1.88;;;;;;;20.48;72.12;100902.31;7391953;19;20072;-57
2023/07/16 02:32:41;;;;;;;6.93;2.28;;;;;;;20.45;72.08;100902.66;7392371;19;20051;-57
2023/07/16 02:35:09;;;;;;;6.35;1.90;;;;;;;20.47;71.85;100906.03;7389938;19;20018;-57
2023/07/16 02:37:36;;;;;;;7.93;2.30;;;;;;;20.50;71.65;100910.25;7391574;19;20019;-58
2023/07/16 02:40:05;;;;;;;7.43;2.17;;;;;;;20.49;71.35;100904.03;7390669;19;20587;-58
2023/07/16 02:42:33;;;;;;;5.63;1.92;;;;;;;20.48;71.46;100906.84;7391831;19;20029;-57
2023/07/16 02:45:00;;;;;;;6.95;2.58;;;;;;;20.36;71.93;100895.63;7389710;19;20043;-58
2023/07/16 02:47:27;;;;;;;5.45;2.03;;;;;;;20.36;72.31;100909.09;7390851;19;20098;-58
2023/07/16 02:49:55;;;;;;;4.95;2.13;;;;;;;20.32;72.44;100908.59;7389741;19;20531;-58
2023/07/16 02:52:22;;;;;;;8.82;2.40;;;;;;;20.36;72.38;100909.09;7391400;19;20014;-57
2023/07/16 02:54:49;;;;;;;6.35;2.25;;;;;;;20.32;71.90;100916.66;7389183;19;20046;-57
2023/07/16 02:57:16;;;;;;;7.70;2.20;;;;;;;20.24;72.42;100914.00;7387211;19;20022;-58
2023/07/16 02:59:44;;;;;;;6.45;1.92;;;;;;;20.29;72.19;100908.94;7390933;19;20029;-57
2023/07/16 03:02:11;;;;;;;7.65;2.33;;;;;;;20.26;72.15;100919.19;7391368;19;20048;-57
2023/07/16 03:04:39;;;;;;;7.85;2.10;;;;;;;20.26;72.36;100924.56;7390404;19;20007;-57
2023/07/16 03:07:06;;;;;;;6.03;1.90;;;;;;;20.24;72.05;100926.59;7391091;19;20024;-58
2023/07/16 03:09:33;;;;;;;8.60;2.28;;;;;;;20.30;71.88;100923.22;7389500;19;20016;-59
2023/07/16 03:12:00;;;;;;;8.15;2.47;;;;;;;20.26;71.80;100922.75;7390823;19;20031;-58
2023/07/16 03:14:28;;;;;;;6.40;2.15;;;;;;;20.20;72.11;100924.25;7389848;19;20019;-58
2023/07/16 03:16:55;;;;;;;6.20;2.35;;;;;;;20.18;72.54;100923.59;7389714;19;20025;-58
2023/07/16 03:19:23;;;;;;;6.75;2.28;;;;;;;20.12;73.02;100935.03;7390454;19;20021;-58
2023/07/16 03:21:50;;;;;;;9.85;2.22;;;;;;;20.20;72.25;100934.19;7388789;19;20031;-58
2023/07/16 03:24:17;;;;;;;6.85;2.17;;;;;;;20.13;72.50;100934.00;7390443;19;20022;-58
2023/07/16 03:26:45;;;;;;;6.68;2.33;;;;;;;20.19;72.66;100932.50;7389719;19;20138;-58
2023/07/16 03:29:12;;;;;;;6.07;2.30;;;;;;;20.13;72.57;100944.78;7388911;19;20018;-58
2023/07/16 03:31:39;;;;;;;5.97;2.28;;;;;;;20.15;73.21;100950.00;7388363;19;20014;-59
2023/07/16 03:34:06;;;;;;;6.32;2.40;;;;;;;20.10;73.20;100937.03;7393476;19;20089;-58
2023/07/16 03:36:34;;;;;;;8.50;2.60;;;;;;;20.10;73.33;100944.28;7389559;19;20496;-58
2023/07/16 03:39:01;;;;;;;11.57;2.60;;;;;;;20.10;73.45;100955.03;7390247;19;20022;-58
2023/07/16 03:41:28;;;;;;;7.30;3.05;;;;;;;20.14;73.47;100959.06;7387881;19;20018;-57
2023/07/16 03:43:56;;;;;;;8.25;2.60;;;;;;;20.22;73.04;100956.34;7389362;19;20028;-58
2023/07/16 03:46:23;;;;;;;9.48;2.45;;;;;;;20.18;73.04;100960.38;7388797;19;20032;-57
2023/07/16 03:48:51;;;;;;;7.07;2.40;;;;;;;20.15;73.38;100966.97;7389368;19;20019;-58
2023/07/16 03:51:18;;;;;;;8.98;2.63;;;;;;;20.06;73.48;100962.59;7388833;19;20029;-58
2023/07/16 03:53:45;;;;;;;8.27;2.70;;;;;;;20.08;73.60;100976.72;7389328;19;20022;-59
2023/07/16 03:56:13;;;;;;;8.10;2.50;;;;;;;19.99;73.63;100972.34;7387065;19;20044;-59
2023/07/16 03:58:40;;;;;;;7.88;2.50;;;;;;;20.05;73.87;100971.69;7389265;19;20088;-59
2023/07/16 04:01:07;;;;;;;8.77;2.70;;;;;;;20.23;73.25;100986.78;7388764;19;20031;-60
2023/07/16 04:03:35;;;;;;;9.52;3.17;;;;;;;20.10;73.65;100984.59;7387814;19;20011;-59
2023/07/16 04:06:04;;;;;;;7.63;2.33;;;;;;;20.15;73.42;100985.78;7388547;19;20035;-61
2023/07/16 04:08:32;;;;;;;8.18;2.97;;;;;;;20.15;73.10;100980.41;7393643;19;20027;-60
2023/07/16 04:10:59;;;;;;;7.93;2.63;;;;;;;20.08;73.51;100986.63;7394789;19;20101;-60
2023/07/16 04:13:26;;;;;;;12.63;2.88;;;;;;;20.07;73.16;100980.44;7396331;19;20022;-60
2023/07/16 04:15:55;;;;;;;9.73;2.90;;;;;;;19.92;73.49;100977.56;7393022;19;20018;-60
2023/07/16 04:18:23;;;;;;;8.07;2.58;;;;;;;19.88;73.94;100976.22;7396731;19;20023;-60
2023/07/16 04:20:51;;;;;;;9.20;2.80;;;;;;;19.96;73.64;100981.59;7393398;19;20023;-59
2023/07/16 04:23:18;;;;;;;8.95;2.45;;;;;;;19.98;73.71;100984.09;7396476;19;20016;-59
2023/07/16 04:25:46;;;;;;;7.00;2.60;;;;;;;20.06;73.24;100981.41;7395427;19;20029;-60
2023/07/16 04:28:13;;;;;;;8.15;2.40;;;;;;;20.01;73.27;100975.72;7396491;19;20018;-59
2023/07/16 04:30:40;;;;;;;7.53;2.60;;;;;;;20.04;73.20;100985.31;7394145;19;20014;-59
2023/07/16 04:33:07;;;;;;;8.90;3.10;;;;;;;19.99;73.46;100985.78;7397576;19;20022;-59
2023/07/16 04:35:35;;;;;;;7.53;2.47;;;;;;;20.06;73.17;101002.09;7393646;19;20049;-60
2023/07/16 04:38:02;;;;;;;7.97;2.60;;;;;;;19.99;73.09;100993.00;7395954;19;20026;-59
2023/07/16 04:40:30;;;;;;;7.07;2.60;;;;;;;20.01;73.02;100999.91;7394289;19;20038;-59
2023/07/16 04:42:57;;;;;;;5.90;2.10;;;;;;;19.98;73.28;100994.88;7395235;19;20026;-59
2023/07/16 04:45:24;;;;;;;9.27;2.80;;;;;;;19.99;73.00;101001.91;7394516;19;20475;-59
2023/07/16 04:47:52;;;;;;;7.95;2.88;;;;;;;19.95;73.38;101011.31;7395472;19;20019;-60
2023/07/16 04:50:19;;;;;;;8.00;2.50;;;;;;;19.96;72.98;101008.50;7395026;19;20115;-59
2023/07/16 04:52:46;;;;;;;11.00;2.85;;;;;;;19.89;73.19;101012.84;7395142;19;20023;-59
2023/07/16 04:55:13;;;;;;;7.80;2.70;;;;;;;19.97;72.56;101014.69;7393374;19;20018;-60
2023/07/16 04:57:41;;;;;;;9.18;2.60;;;;;;;19.92;72.81;101009.00;7394301;19;20043;-59
2023/07/16 05:00:08;;;;;;;9.73;2.80;;;;;;;19.96;72.54;101019.25;7394652;19;20047;-59
2023/07/16 05:02:36;;;;;;;6.53;2.42;;;;;;;19.89;72.37;101012.00;7395224;19;20077;-59
2023/07/16 05:05:03;;;;;;;8.23;2.40;;;;;;;19.87;72.57;101014.84;7394103;19;20078;-59
2023/07/16 05:07:31;;;;;;;11.13;2.70;;;;;;;20.00;72.29;101026.97;7394447;19;20014;-59
2023/07/16 05:12:36;;;;;;;7.50;2.50;;;;;;;19.94;71.70;101013.19;7394201;19;20015;-58
2023/07/16 05:15:03;;;;;;;7.25;2.38;;;;;;;19.86;71.55;101018.56;7391767;19;20395;-58
2023/07/16 05:17:30;;;;;;;8.02;2.38;;;;;;;19.98;71.60;101037.88;7394275;19;20050;-58
2023/07/16 05:19:58;;;;;;;9.05;2.40;;;;;;;19.91;71.49;101029.63;7391632;19;20014;-58
2023/07/16 05:22:25;;;;;;;9.98;2.67;;;;;;;20.00;71.02;101035.88;7394032;19;20493;-58
2023/07/16 05:24:52;;;;;;;7.97;2.50;;;;;;;20.07;70.89;101041.41;7392911;19;20022;-58
2023/07/16 05:27:20;;;;;;;6.68;2.40;;;;;;;20.10;70.68;101043.75;7393997;19;20086;-59
2023/07/16 05:29:48;;;;;;;7.43;2.45;;;;;;;20.11;70.67;101035.53;7393932;19;20401;-57
2023/07/16 05:32:15;;;;;;;6.63;2.50;;;;;;;20.13;70.32;101035.38;7391212;19;20484;-57
2023/07/16 05:34:42;;;;;;;9.23;3.03;;;;;;;20.07;69.95;101041.41;7396710;19;20036;-57
2023/07/16 05:37:10;;;;;;;9.18;2.90;;;;;;;19.95;69.66;101043.59;7393337;19;20018;-57
2023/07/16 05:39:37;;;;;;;8.27;2.90;;;;;;;20.02;68.59;101038.38;7393081;19;20036;-57
2023/07/16 05:42:05;;;;;;;8.95;2.50;;;;;;;20.08;68.72;101035.03;7389335;19;20051;-58
2023/07/16 05:44:33;;;;;;;8.85;3.20;;;;;;;20.05;68.75;101041.59;7392496;19;20527;-58
2023/07/16 05:47:00;;;;;;;7.50;2.80;;;;;;;20.13;67.92;101035.38;7392534;19;20511;-58
2023/07/16 05:49:27;;;;;;;11.68;3.13;;;;;;;20.18;68.00;101033.88;7391611;19;20040;-57
2023/07/16 05:51:55;;;;;;;8.45;2.88;;;;;;;20.16;67.68;101045.78;7390903;19;20017;-57
2023/07/16 05:54:23;;;;;;;7.30;3.03;;;;;;;20.05;67.45;101046.97;7393371;19;20018;-56
2023/07/16 05:56:50;;;;;;;10.65;3.58;;;;;;;20.11;67.50;101029.31;7390199;19;20492;-58
2023/07/16 05:59:17;;;;;;;9.95;2.60;;;;;;;20.19;67.34;101045.47;7392330;19;20015;-58
2023/07/16 06:01:45;;;;;;;8.98;2.83;;;;;;;20.19;67.19;101054.38;7390923;19;20014;-58
2023/07/16 06:04:13;;;;;;;8.57;2.67;;;;;;;20.24;67.26;101053.00;7391933;19;20018;-57
2023/07/16 06:06:41;;;;;;;7.80;2.55;;;;;;;20.17;67.40;101042.91;7392495;19;20465;-57
2023/07/16 06:09:08;;;;;;;8.40;2.95;;;;;;;20.18;67.02;101049.13;7392141;19;20014;-57
2023/07/16 06:11:35;;;;;;;10.30;3.30;;;;;;;20.19;67.30;101050.84;7391257;19;20022;-57
2023/07/16 06:14:02;;;;;;;9.52;3.00;;;;;;;20.23;67.38;101056.72;7392035;19;20018;-57
2023/07/16 06:16:30;;;;;;;10.27;2.70;;;;;;;20.32;67.03;101053.84;7390053;19;20022;-57
2023/07/16 06:18:58;;;;;;;12.30;2.85;;;;;;;20.32;66.82;101053.00;7390611;19;20022;-57
2023/07/16 06:21:25;;;;;;;8.82;2.63;;;;;;;20.41;66.68;101054.66;7389047;19;20018;-57
2023/07/16 06:23:52;;;;;;;6.82;2.40;;;;;;;20.43;66.59;101052.66;7391657;19;20026;-57
2023/07/16 06:26:20;;;;;;;7.35;2.70;;;;;;;20.44;66.81;101052.47;7391053;19;20014;-57
2023/07/16 06:28:50;;;;;;;8.90;2.70;;;;;;;20.40;67.15;101051.13;7391831;19;20014;-58
2023/07/16 06:31:17;;;;;;;7.85;2.45;;;;;;;20.42;66.56;101051.81;7389664;19;20021;-57
2023/07/16 06:33:49;;;;;;;8.02;2.30;;;;;;;20.38;66.06;101053.19;7394233;19;20040;-57
2023/07/16 06:36:16;;;;;;;6.70;2.38;;;;;;;20.42;65.20;101057.22;7387760;19;20050;-57
2023/07/16 06:38:44;;;;;;;8.07;1.95;;;;;;;20.42;65.27;101061.75;7391510;19;20049;-58
2023/07/16 06:41:11;;;;;;;10.43;2.70;;;;;;;20.46;65.37;101068.47;7390206;19;20015;-57
2023/07/16 06:43:39;;;;;;;7.50;2.28;;;;;;;20.34;65.57;101057.22;7390711;19;20011;-57
2023/07/16 06:46:06;;;;;;;9.23;2.33;;;;;;;20.47;65.63;101062.06;7389920;19;20035;-57
2023/07/16 06:48:34;;;;;;;8.00;2.53;;;;;;;20.57;65.60;101078.09;7391390;19;20089;-57
2023/07/16 06:51:01;;;;;;;9.70;2.47;;;;;;;20.64;65.62;101077.22;7389443;19;20034;-57
2023/07/16 06:53:29;;;;;;;7.03;2.22;;;;;;;20.64;65.29;101073.66;7390885;19;20022;-57
2023/07/16 06:55:56;;;;;;;8.23;2.47;;;;;;;20.63;65.42;101086.28;7388855;19;20525;-57
2023/07/16 06:58:31;;;;;;;9.60;2.03;;;;;;;20.79;65.56;101088.09;7391603;19;20371;-57
2023/07/16 07:00:58;;;;;;;6.35;2.38;;;;;;;20.80;65.43;101088.97;7389605;19;20014;-57
2023/07/16 07:03:26;;;;;;;8.80;2.58;;;;;;;21.07;64.42;101101.19;7390675;19;20018;-57
2023/07/16 07:05:53;;;;;;;7.63;2.40;;;;;;;21.07;64.46;101093.94;7390446;19;20030;-57
2023/07/16 07:08:20;;;;;;;6.28;2.10;;;;;;;21.09;65.16;101097.28;7390921;19;20176;-57
2023/07/16 07:10:49;;;;;;;6.75;2.35;;;;;;;21.18;64.79;101090.88;7390010;19;20082;-57
2023/07/16 07:13:16;;;;;;;8.38;2.75;;;;;;;21.14;64.98;101096.78;7389869;19;20034;-57
2023/07/16 07:15:43;;;;;;;9.02;3.08;;;;;;;21.03;64.89;101095.31;7389187;19;20018;-58
2023/07/16 07:18:10;;;;;;;8.80;3.13;;;;;;;21.00;64.92;101090.25;7390151;19;20470;-57
2023/07/16 07:20:39;;;;;;;5.97;2.80;;;;;;;21.02;64.11;101100.84;7389733;19;20022;-58
2023/07/16 07:23:07;;;;;;;12.38;3.47;;;;;;;20.90;64.29;101098.50;7390226;19;20078;-56
2023/07/16 07:25:34;;;;;;;11.43;3.17;;;;;;;20.93;64.38;101110.81;7388843;19;20027;-57
2023/07/16 07:28:02;;;;;;;10.05;3.50;;;;;;;20.77;64.45;101108.16;7389909;19;20056;-57
2023/07/16 07:30:30;;;;;;;7.38;3.42;;;;;;;20.77;64.91;101108.16;7389761;19;20026;-58
2023/07/16 07:32:57;;;;;;;8.00;3.55;;;;;;;20.81;65.42;101101.41;7389104;19;20368;-58
2023/07/16 07:35:24;;;;;;;8.57;3.92;;;;;;;20.80;65.43;101100.56;7386699;19;20022;-57
2023/07/16 07:37:52;;;;;;;7.05;3.70;;;;;;;20.90;65.29;101097.69;7389674;19;20070;-57
2023/07/16 07:40:19;;;;;;;8.38;3.72;;;;;;;20.92;64.56;101114.50;7387603;19;20064;-57
2023/07/16 07:42:47;;;;;;;8.07;3.80;;;;;;;20.82;64.43;101097.69;7391804;19;20043;-58
2023/07/16 07:45:14;;;;;;;9.90;4.00;;;;;;;20.96;63.25;101105.06;7395716;19;20023;-59
2023/07/16 07:47:41;;;;;;;9.60;3.88;;;;;;;20.98;62.64;101102.19;7396684;19;20014;-58
2023/07/16 07:50:09;;;;;;;12.82;4.70;;;;;;;20.96;62.30;101113.16;7396985;19;20023;-58
2023/07/16 07:52:37;;;;;;;8.45;3.70;;;;;;;20.89;61.32;101102.22;7396694;19;20086;-58
2023/07/16 07:55:04;;;;;;;11.20;4.30;;;;;;;21.15;60.85;101115.47;7395534;19;20027;-58
2023/07/16 07:57:31;;;;;;;10.63;3.97;;;;;;;21.30;59.67;101115.56;7394156;19;20018;-58
2023/07/16 07:59:59;;;;;;;9.73;3.72;;;;;;;21.28;59.22;101116.75;7397246;19;20019;-58
2023/07/16 08:02:27;;;;;;;7.55;3.53;;;;;;;21.17;59.60;101120.66;7396498;19;20024;-58
2023/07/16 08:04:55;;;;;;;11.10;4.13;;;;;;;21.32;59.06;101107.31;7396047;19;20448;-58
2023/07/16 08:07:23;;;;;;;9.40;4.00;;;;;;;21.26;59.84;101106.16;7396514;19;20014;-58
2023/07/16 08:09:50;;;;;;;10.32;4.25;;;;;;;21.28;59.39;101114.06;7396809;19;20015;-59
2023/07/16 08:12:17;;;;;;;10.32;4.00;;;;;;;21.39;59.37;101121.78;7393573;19;20015;-59
2023/07/16 08:14:45;;;;;;;9.48;3.90;;;;;;;21.45;59.52;101117.56;7393989;19;20028;-58
2023/07/16 08:17:12;;;;;;;10.23;3.72;;;;;;;21.47;59.22;101116.38;7393675;19;20015;-58
2023/07/16 08:19:39;;;;;;;11.68;3.88;;;;;;;21.52;58.45;101124.78;7395997;19;20044;-58
2023/07/16 08:22:06;;;;;;;9.98;3.30;;;;;;;21.48;58.08;101128.81;7393338;19;20060;-58
2023/07/16 08:24:34;;;;;;;7.72;3.50;;;;;;;21.48;57.67;101139.59;7398046;19;20040;-58
2023/07/16 08:27:01;;;;;;;8.18;3.17;;;;;;;21.45;56.79;101131.88;7393840;19;20025;-58
2023/07/16 08:29:28;;;;;;;11.85;3.58;;;;;;;21.52;55.79;101140.09;7395150;19;20563;-58
2023/07/16 08:31:56;;;;;;;9.98;3.97;;;;;;;21.56;55.25;101147.69;7392908;19;20011;-58
2023/07/16 08:34:23;;;;;;;8.32;3.35;;;;;;;21.76;54.55;101161.56;7398476;19;20040;-58
2023/07/16 08:36:50;;;;;;;7.55;3.25;;;;;;;21.79;53.19;101147.72;7391541;19;20014;-59
2023/07/16 08:39:19;;;;;;;8.70;3.30;;;;;;;21.76;53.21;101152.63;7393364;19;20018;-58
2023/07/16 08:41:49;;;;;;;8.52;3.63;;;;;;;21.80;53.00;101156.66;7393476;19;20057;-59
2023/07/16 08:44:17;;;;;;;7.65;3.42;;;;;;;21.90;52.19;101144.63;7395321;19;20018;-59
2023/07/16 08:46:44;;;;;;;8.30;3.30;;;;;;;22.00;52.92;101144.38;7392357;19;20036;-59
2023/07/16 08:49:12;;;;;;;8.98;3.55;;;;;;;22.01;53.05;101158.72;7394717;19;20046;-58
2023/07/16 08:51:40;;;;;;;9.48;3.38;;;;;;;21.95;52.91;101160.28;7392874;19;20042;-58
2023/07/16 08:54:08;;;;;;;9.00;3.50;;;;;;;21.98;53.19;101150.97;7392830;19;20542;-58
2023/07/16 08:56:35;;;;;;;10.45;3.50;;;;;;;21.87;52.43;101154.94;7392744;19;20026;-58
2023/07/16 08:59:03;;;;;;;8.77;3.63;;;;;;;21.89;51.96;101175.28;7394422;19;20018;-58
2023/07/16 09:01:30;;;;;;;8.90;3.67;;;;;;;21.91;51.95;101167.03;7397007;19;20067;-59
2023/07/16 09:03:58;;;;;;;7.47;3.13;;;;;;;22.10;52.04;101184.63;7395107;19;20488;-59
2023/07/16 09:06:27;;;;;;;6.53;3.25;;;;;;;22.12;50.60;101183.41;7393824;19;20129;-59
2023/07/16 09:08:55;;;;;;;10.00;3.75;;;;;;;21.96;51.52;101178.13;7394393;19;20078;-59
2023/07/16 09:11:22;;;;;;;8.88;3.75;;;;;;;21.97;51.29;101185.19;7392801;19;20036;-59
2023/07/16 09:13:49;;;;;;;10.00;4.13;;;;;;;21.94;50.98;101176.63;7393106;19;20033;-59
2023/07/16 09:16:21;;;;;;;8.40;3.38;;;;;;;22.01;50.79;101196.47;7392429;19;20044;-59
2023/07/16 09:18:48;;;;;;;7.72;3.10;;;;;;;22.19;50.51;101196.25;7393995;19;20022;-59
2023/07/16 09:21:15;;;;;;;9.52;3.85;;;;;;;22.05;50.03;101198.63;7392952;19;20018;-67
2023/07/16 09:23:43;;;;;;;8.65;3.80;;;;;;;21.90;51.12;101192.31;7391687;19;20022;-59
2023/07/16 09:26:10;;;;;;;10.10;3.80;;;;;;;21.86;50.94;101202.63;7393354;19;20031;-59
2023/07/16 09:28:37;;;;;;;8.85;3.47;;;;;;;21.65;50.89;101197.81;7394007;19;20023;-59
2023/07/16 09:31:07;;;;;;;10.00;3.40;;;;;;;21.58;51.75;101196.84;7392278;19;20035;-58
2023/07/16 09:33:34;;;;;;;9.68;3.45;;;;;;;21.76;50.57;101198.47;7396074;19;20081;-58
2023/07/16 09:36:03;;;;;;;11.18;3.80;;;;;;;22.05;50.07;101208.59;7392208;19;20078;-58
2023/07/16 09:38:32;;;;;;;7.63;3.10;;;;;;;22.21;49.84;101203.16;7393297;19;20055;-58
2023/07/16 09:41:02;;;;;;;11.70;3.90;;;;;;;22.51;49.00;101206.81;7393254;19;20022;-58
2023/07/16 09:43:30;;;;;;;11.55;4.00;;;;;;;22.52;49.25;101210.38;7393303;19;20040;-59
2023/07/16 09:45:57;;;;;;;8.52;3.70;;;;;;;22.49;49.06;101208.84;7396567;19;20015;-59
2023/07/16 09:48:24;;;;;;;6.80;3.40;;;;;;;22.48;49.20;101215.28;7393168;19;20011;-59
2023/07/16 09:50:53;;;;;;;10.25;3.67;;;;;;;22.34;48.93;101221.44;7392374;19;20048;-57
2023/07/16 09:53:21;;;;;;;9.40;3.70;;;;;;;22.25;49.33;101212.56;7392760;19;20134;-57
2023/07/16 09:55:52;;;;;;;12.13;3.70;;;;;;;22.49;48.89;101221.50;7392210;19;20026;-57
2023/07/16 09:58:22;;;;;;;6.50;2.78;;;;;;;22.60;48.64;101226.50;7392408;19;20018;-57
2023/07/16 10:00:50;;;;;;;10.73;4.00;;;;;;;22.53;48.49;101223.66;7392471;19;20040;-57
2023/07/16 10:03:18;;;;;;;7.75;3.50;;;;;;;22.67;47.91;101207.72;7392423;19;20014;-57
2023/07/16 10:05:45;;;;;;;9.32;3.75;;;;;;;22.70;48.63;101210.88;7390089;19;20082;-58
2023/07/16 10:08:19;;;;;;;8.20;3.22;;;;;;;22.65;48.85;101209.75;7390617;19;20022;-58
2023/07/16 10:10:53;;;;;;;;;;;;;;;22.53;48.18;101223.66;7392248;19;20055;-57
2023/07/16 10:13:23;;;;;;;8.35;3.50;;;;;;;22.53;49.13;101215.56;7392265;19;19926;-58
2023/07/16 10:15:53;;;;;;;9.20;3.55;;;;;;;22.51;49.14;101220.31;7391153;19;20054;-58
2023/07/16 10:18:30;;;;;;;8.07;3.33;;;;;;;22.77;48.95;101217.22;7392099;19;20014;-58
2023/07/16 10:21:07;;;;;;;7.20;3.30;;;;;;;22.78;48.91;101216.22;7391541;19;20021;-58
2023/07/16 10:23:42;;;;;;;10.00;3.40;;;;;;;22.88;48.49;101214.09;7394457;19;20529;-61
2023/07/16 10:26:13;;;;;;;6.97;3.42;;;;;;;22.98;48.51;101221.16;7391199;19;20077;-58
2023/07/16 10:28:46;;;;;;;8.95;2.90;;;;;;;22.84;48.35;101228.16;7392007;19;20038;-58
2023/07/16 10:31:24;;;;;;;7.80;3.08;;;;;;;22.82;47.61;101211.31;7390586;19;20478;-58
2023/07/16 10:34:04;;;;;;;6.85;2.90;;;;;;;22.77;48.36;101229.88;7394256;19;20026;-57
2023/07/16 10:36:41;;;;;;;6.40;3.17;;;;;;;22.83;47.96;101239.97;7390178;19;20019;-58
2023/07/16 10:39:08;;;;;;;7.32;3.10;;;;;;;22.87;47.84;101223.22;7391317;19;20053;-59
2023/07/16 10:41:36;;;;;;;7.80;2.70;;;;;;;22.94;47.47;101234.19;7389718;19;20028;-58
2023/07/16 10:44:04;;;;;;;6.75;2.95;;;;;;;22.88;46.78;101243.81;7390482;19;20018;-59
2023/07/16 10:46:34;;;;;;;8.00;2.90;;;;;;;22.91;47.28;101239.06;7388911;19;20019;-56
2023/07/16 10:49:02;;;;;;;6.65;2.58;;;;;;;22.76;46.74;101249.81;7390849;19;20416;-58
2023/07/16 10:51:30;;;;;;;6.07;2.85;;;;;;;22.84;46.35;101247.88;7389524;19;20056;-58
2023/07/16 10:53:57;;;;;;;8.55;3.05;;;;;;;22.87;46.91;101246.69;7390637;19;20018;-57
2023/07/16 10:56:25;;;;;;;6.30;2.95;;;;;;;22.90;46.94;101253.59;7390581;19;20022;-58
2023/07/16 10:58:53;;;;;;;7.95;3.15;;;;;;;22.91;47.32;101249.88;7390338;19;20051;-58
2023/07/16 11:01:20;;;;;;;9.80;2.60;;;;;;;22.93;46.58;101247.84;7387728;19;20349;-58
2023/07/16 11:03:47;;;;;;;7.78;3.08;;;;;;;22.91;46.91;101245.34;7391222;19;20054;-58
2023/07/16 11:06:18;;;;;;;7.90;2.95;;;;;;;23.14;46.54;101252.56;7389052;19;20022;-57
2023/07/16 11:08:47;;;;;;;8.82;2.80;;;;;;;23.20;46.88;101252.69;7390875;19;20011;-58
2023/07/16 11:11:14;;;;;;;10.27;2.90;;;;;;;23.14;46.44;101256.13;7389210;19;20014;-59
2023/07/16 11:13:43;;;;;;;8.63;2.80;;;;;;;23.24;46.39;101253.16;7390167;19;20018;-59
2023/07/16 11:16:15;;;;;;;10.57;2.97;;;;;;;23.21;46.49;101254.38;7389377;19;20022;-58
2023/07/16 11:18:44;;;;;;;7.93;3.00;;;;;;;23.08;46.45;101249.56;7393811;19;20247;-57
2023/07/16 11:21:11;;;;;;;9.77;3.22;;;;;;;23.00;47.30;101265.00;7395721;19;20050;-57
2023/07/16 11:23:39;;;;;;;8.82;2.90;;;;;;;23.14;47.41;101275.03;7397681;19;20014;-58
2023/07/16 11:26:06;;;;;;;9.15;3.33;;;;;;;23.29;46.56;101262.38;7397137;19;20018;-58
2023/07/16 11:28:43;;;;;;;7.07;3.25;;;;;;;23.53;45.66;101258.56;7397233;19;20084;-57
2023/07/16 11:31:15;;;;;;;11.52;3.20;;;;;;;23.72;45.58;101268.03;7396043;19;20050;-58